sensor_id;sensor_type;location;lat;lon;timestamp;P1;durP1;ratioP1;P2;durP2;ratioP2
76127;SDS011;64873;50.102;14.434;2023-04-24T00:01:13;16.58;;;8.38;;
76127;SDS011;64873;50.102;14.434;2023-04-24T00:03:38;16.92;;;9.00;;
76127;SDS011;64873;50.102;14.434;2023-04-24T00:06:04;13.23;;;8.00;;
76127;SDS011;64873;50.102;14.434;2023-04-24T00:08:31;13.65;;;8.65;;
76127;SDS011;64873;50.102;14.434;2023-04-24T00:10:57;12.73;;;7.70;;
76127;SDS011;64873;50.102;14.434;2023-04-24T00:13:23;15.10;;;8.02;;
76127;SDS011;64873;50.102;14.434;2023-04-24T00:15:49;14.85;;;8.13;;
76127;SDS011;64873;50.102;14.434;2023-04-24T00:18:14;12.55;;;8.10;;
76127;SDS011;64873;50.102;14.434;2023-04-24T00:20:40;12.93;;;7.25;;
76127;SDS011;64873;50.102;14.434;2023-04-24T00:23:06;11.55;;;7.25;;
76127;SDS011;64873;50.102;14.434;2023-04-24T00:25:31;13.95;;;7.47;;
76127;SDS011;64873;50.102;14.434;2023-04-24T00:27:57;11.95;;;7.30;;
76127;SDS011;64873;50.102;14.434;2023-04-24T00:30:22;14.32;;;7.15;;
76127;SDS011;64873;50.102;14.434;2023-04-24T00:32:48;11.40;;;6.65;;
76127;SDS011;64873;50.102;14.434;2023-04-24T00:35:13;10.27;;;6.63;;
76127;SDS011;64873;50.102;14.434;2023-04-24T00:37:39;17.05;;;7.07;;
76127;SDS011;64873;50.102;14.434;2023-04-24T00:40:05;11.85;;;6.75;;
76127;SDS011;64873;50.102;14.434;2023-04-24T00:42:31;10.20;;;7.13;;
76127;SDS011;64873;50.102;14.434;2023-04-24T00:44:57;12.95;;;7.75;;
76127;SDS011;64873;50.102;14.434;2023-04-24T00:47:24;10.80;;;6.45;;
76127;SDS011;64873;50.102;14.434;2023-04-24T00:49:50;10.63;;;7.43;;
76127;SDS011;64873;50.102;14.434;2023-04-24T00:52:15;11.65;;;7.18;;
76127;SDS011;64873;50.102;14.434;2023-04-24T00:54:43;10.45;;;6.40;;
76127;SDS011;64873;50.102;14.434;2023-04-24T00:57:11;12.35;;;7.20;;
76127;SDS011;64873;50.102;14.434;2023-04-24T00:59:39;11.30;;;6.88;;
76127;SDS011;64873;50.102;14.434;2023-04-24T01:02:06;12.43;;;6.93;;
76127;SDS011;64873;50.102;14.434;2023-04-24T01:04:33;12.32;;;6.80;;
76127;SDS011;64873;50.102;14.434;2023-04-24T01:06:59;11.38;;;6.90;;
76127;SDS011;64873;50.102;14.434;2023-04-24T01:09:25;12.52;;;6.85;;
76127;SDS011;64873;50.102;14.434;2023-04-24T01:11:51;11.18;;;7.00;;
76127;SDS011;64873;50.102;14.434;2023-04-24T01:14:17;11.65;;;6.47;;
76127;SDS011;64873;50.102;14.434;2023-04-24T01:16:43;11.77;;;6.38;;
76127;SDS011;64873;50.102;14.434;2023-04-24T01:19:08;12.05;;;6.68;;
76127;SDS011;64873;50.102;14.434;2023-04-24T01:21:36;12.50;;;6.80;;
76127;SDS011;64873;50.102;14.434;2023-04-24T01:24:03;12.45;;;7.40;;
76127;SDS011;64873;50.102;14.434;2023-04-24T01:26:30;18.27;;;10.95;;
76127;SDS011;64873;50.102;14.434;2023-04-24T01:28:56;21.73;;;14.38;;
76127;SDS011;64873;50.102;14.434;2023-04-24T01:31:21;21.33;;;14.25;;
76127;SDS011;64873;50.102;14.434;2023-04-24T01:33:47;22.98;;;14.07;;
76127;SDS011;64873;50.102;14.434;2023-04-24T01:36:12;19.40;;;12.65;;
76127;SDS011;64873;50.102;14.434;2023-04-24T01:38:38;16.60;;;12.75;;
76127;SDS011;64873;50.102;14.434;2023-04-24T01:41:04;17.45;;;12.77;;
76127;SDS011;64873;50.102;14.434;2023-04-24T01:43:29;17.23;;;10.52;;
76127;SDS011;64873;50.102;14.434;2023-04-24T01:45:55;13.82;;;8.63;;
76127;SDS011;64873;50.102;14.434;2023-04-24T01:48:21;12.57;;;7.03;;
76127;SDS011;64873;50.102;14.434;2023-04-24T01:50:47;11.70;;;6.25;;
76127;SDS011;64873;50.102;14.434;2023-04-24T01:53:12;6.60;;;4.68;;
76127;SDS011;64873;50.102;14.434;2023-04-24T01:55:38;7.45;;;4.47;;
76127;SDS011;64873;50.102;14.434;2023-04-24T01:58:03;5.13;;;3.20;;
76127;SDS011;64873;50.102;14.434;2023-04-24T02:00:29;5.05;;;2.80;;
76127;SDS011;64873;50.102;14.434;2023-04-24T02:02:54;4.80;;;2.90;;
76127;SDS011;64873;50.102;14.434;2023-04-24T02:05:20;3.80;;;2.42;;
76127;SDS011;64873;50.102;14.434;2023-04-24T02:07:45;5.75;;;2.60;;
76127;SDS011;64873;50.102;14.434;2023-04-24T02:10:11;5.07;;;2.63;;
76127;SDS011;64873;50.102;14.434;2023-04-24T02:12:37;4.97;;;2.65;;
76127;SDS011;64873;50.102;14.434;2023-04-24T02:15:02;4.32;;;2.10;;
76127;SDS011;64873;50.102;14.434;2023-04-24T02:17:28;5.13;;;2.35;;
76127;SDS011;64873;50.102;14.434;2023-04-24T02:19:54;5.35;;;2.17;;
76127;SDS011;64873;50.102;14.434;2023-04-24T02:22:19;6.18;;;2.55;;
76127;SDS011;64873;50.102;14.434;2023-04-24T02:24:45;4.22;;;2.53;;
76127;SDS011;64873;50.102;14.434;2023-04-24T02:27:10;6.57;;;2.78;;
76127;SDS011;64873;50.102;14.434;2023-04-24T02:29:36;5.90;;;2.70;;
76127;SDS011;64873;50.102;14.434;2023-04-24T02:32:02;4.60;;;2.53;;
76127;SDS011;64873;50.102;14.434;2023-04-24T02:34:27;7.25;;;2.75;;
76127;SDS011;64873;50.102;14.434;2023-04-24T02:36:53;5.15;;;2.40;;
76127;SDS011;64873;50.102;14.434;2023-04-24T02:39:21;4.50;;;2.58;;
76127;SDS011;64873;50.102;14.434;2023-04-24T02:41:46;3.97;;;2.63;;
76127;SDS011;64873;50.102;14.434;2023-04-24T02:44:12;5.85;;;2.38;;
76127;SDS011;64873;50.102;14.434;2023-04-24T02:46:37;4.28;;;2.13;;
76127;SDS011;64873;50.102;14.434;2023-04-24T02:49:03;4.90;;;2.22;;
76127;SDS011;64873;50.102;14.434;2023-04-24T02:51:28;3.38;;;2.17;;
76127;SDS011;64873;50.102;14.434;2023-04-24T02:53:54;2.35;;;1.75;;
76127;SDS011;64873;50.102;14.434;2023-04-24T02:56:19;3.03;;;1.65;;
76127;SDS011;64873;50.102;14.434;2023-04-24T02:58:45;2.10;;;1.58;;
76127;SDS011;64873;50.102;14.434;2023-04-24T03:01:10;2.60;;;1.70;;
76127;SDS011;64873;50.102;14.434;2023-04-24T03:03:36;4.28;;;1.77;;
76127;SDS011;64873;50.102;14.434;2023-04-24T03:06:02;7.72;;;1.77;;
76127;SDS011;64873;50.102;14.434;2023-04-24T03:08:30;5.18;;;1.98;;
76127;SDS011;64873;50.102;14.434;2023-04-24T03:10:56;5.55;;;2.10;;
76127;SDS011;64873;50.102;14.434;2023-04-24T03:13:21;3.70;;;1.98;;
76127;SDS011;64873;50.102;14.434;2023-04-24T03:15:47;2.75;;;1.95;;
76127;SDS011;64873;50.102;14.434;2023-04-24T03:18:12;2.78;;;1.60;;
76127;SDS011;64873;50.102;14.434;2023-04-24T03:20:38;3.35;;;1.95;;
76127;SDS011;64873;50.102;14.434;2023-04-24T03:23:03;3.70;;;1.60;;
76127;SDS011;64873;50.102;14.434;2023-04-24T03:25:29;3.55;;;1.88;;
76127;SDS011;64873;50.102;14.434;2023-04-24T03:27:54;4.28;;;2.00;;
76127;SDS011;64873;50.102;14.434;2023-04-24T03:30:20;4.07;;;1.45;;
76127;SDS011;64873;50.102;14.434;2023-04-24T03:32:45;5.25;;;2.25;;
76127;SDS011;64873;50.102;14.434;2023-04-24T03:35:11;5.35;;;1.58;;
76127;SDS011;64873;50.102;14.434;2023-04-24T03:37:36;2.45;;;1.80;;
76127;SDS011;64873;50.102;14.434;2023-04-24T03:40:02;3.22;;;1.85;;
76127;SDS011;64873;50.102;14.434;2023-04-24T03:42:27;2.92;;;1.98;;
76127;SDS011;64873;50.102;14.434;2023-04-24T03:44:53;6.07;;;2.10;;
76127;SDS011;64873;50.102;14.434;2023-04-24T03:47:18;5.47;;;2.30;;
76127;SDS011;64873;50.102;14.434;2023-04-24T03:49:44;2.65;;;1.63;;
76127;SDS011;64873;50.102;14.434;2023-04-24T03:52:09;4.85;;;1.77;;
76127;SDS011;64873;50.102;14.434;2023-04-24T03:54:35;5.30;;;3.15;;
76127;SDS011;64873;50.102;14.434;2023-04-24T03:57:00;4.78;;;2.10;;
76127;SDS011;64873;50.102;14.434;2023-04-24T03:59:26;4.50;;;2.92;;
76127;SDS011;64873;50.102;14.434;2023-04-24T04:01:52;5.18;;;2.72;;
76127;SDS011;64873;50.102;14.434;2023-04-24T04:04:17;4.38;;;2.00;;
76127;SDS011;64873;50.102;14.434;2023-04-24T04:06:43;2.78;;;1.95;;
76127;SDS011;64873;50.102;14.434;2023-04-24T04:09:09;6.00;;;2.15;;
76127;SDS011;64873;50.102;14.434;2023-04-24T04:11:35;3.78;;;1.85;;
76127;SDS011;64873;50.102;14.434;2023-04-24T04:14:00;3.35;;;2.00;;
76127;SDS011;64873;50.102;14.434;2023-04-24T04:16:26;2.92;;;1.70;;
76127;SDS011;64873;50.102;14.434;2023-04-24T04:18:51;2.63;;;1.55;;
76127;SDS011;64873;50.102;14.434;2023-04-24T04:21:16;4.93;;;1.75;;
76127;SDS011;64873;50.102;14.434;2023-04-24T04:23:42;4.75;;;1.65;;
76127;SDS011;64873;50.102;14.434;2023-04-24T04:26:07;4.35;;;2.03;;
76127;SDS011;64873;50.102;14.434;2023-04-24T04:28:33;5.75;;;2.08;;
76127;SDS011;64873;50.102;14.434;2023-04-24T04:30:58;4.60;;;1.85;;
76127;SDS011;64873;50.102;14.434;2023-04-24T04:33:32;4.38;;;2.03;;
76127;SDS011;64873;50.102;14.434;2023-04-24T04:35:57;3.28;;;1.85;;
76127;SDS011;64873;50.102;14.434;2023-04-24T04:38:49;3.38;;;1.80;;
76127;SDS011;64873;50.102;14.434;2023-04-24T04:41:24;6.68;;;1.80;;
76127;SDS011;64873;50.102;14.434;2023-04-24T04:43:50;3.10;;;1.52;;
76127;SDS011;64873;50.102;14.434;2023-04-24T04:46:17;3.88;;;2.10;;
76127;SDS011;64873;50.102;14.434;2023-04-24T04:48:48;5.70;;;1.80;;
76127;SDS011;64873;50.102;14.434;2023-04-24T04:51:14;3.75;;;1.70;;
76127;SDS011;64873;50.102;14.434;2023-04-24T04:53:46;5.38;;;1.98;;
76127;SDS011;64873;50.102;14.434;2023-04-24T04:59:20;3.65;;;1.90;;
76127;SDS011;64873;50.102;14.434;2023-04-24T05:01:52;3.75;;;1.83;;
76127;SDS011;64873;50.102;14.434;2023-04-24T05:04:30;8.55;;;2.30;;
76127;SDS011;64873;50.102;14.434;2023-04-24T05:06:56;5.35;;;2.30;;
76127;SDS011;64873;50.102;14.434;2023-04-24T05:09:25;4.78;;;2.00;;
76127;SDS011;64873;50.102;14.434;2023-04-24T05:11:57;7.28;;;1.98;;
76127;SDS011;64873;50.102;14.434;2023-04-24T05:14:22;6.05;;;2.03;;
76127;SDS011;64873;50.102;14.434;2023-04-24T05:16:48;9.45;;;2.08;;
76127;SDS011;64873;50.102;14.434;2023-04-24T05:19:13;5.15;;;2.70;;
76127;SDS011;64873;50.102;14.434;2023-04-24T05:21:40;7.00;;;2.13;;
76127;SDS011;64873;50.102;14.434;2023-04-24T05:24:14;4.30;;;2.13;;
76127;SDS011;64873;50.102;14.434;2023-04-24T05:26:45;4.90;;;2.05;;
76127;SDS011;64873;50.102;14.434;2023-04-24T05:29:10;3.13;;;1.88;;
76127;SDS011;64873;50.102;14.434;2023-04-24T05:31:50;6.05;;;2.10;;
76127;SDS011;64873;50.102;14.434;2023-04-24T05:34:22;6.50;;;2.10;;
76127;SDS011;64873;50.102;14.434;2023-04-24T05:36:54;4.50;;;2.13;;
76127;SDS011;64873;50.102;14.434;2023-04-24T05:39:23;5.85;;;1.92;;
76127;SDS011;64873;50.102;14.434;2023-04-24T05:41:55;4.68;;;2.25;;
76127;SDS011;64873;50.102;14.434;2023-04-24T05:44:23;4.63;;;2.08;;
76127;SDS011;64873;50.102;14.434;2023-04-24T05:46:53;5.22;;;1.88;;
76127;SDS011;64873;50.102;14.434;2023-04-24T05:49:22;3.95;;;2.50;;
76127;SDS011;64873;50.102;14.434;2023-04-24T05:51:48;4.68;;;2.13;;
76127;SDS011;64873;50.102;14.434;2023-04-24T05:54:13;3.42;;;1.85;;
76127;SDS011;64873;50.102;14.434;2023-04-24T05:56:39;3.35;;;2.42;;
76127;SDS011;64873;50.102;14.434;2023-04-24T05:59:05;4.82;;;1.83;;
76127;SDS011;64873;50.102;14.434;2023-04-24T06:01:31;5.30;;;1.95;;
76127;SDS011;64873;50.102;14.434;2023-04-24T06:03:56;8.02;;;1.90;;
76127;SDS011;64873;50.102;14.434;2023-04-24T06:06:23;3.45;;;1.83;;
76127;SDS011;64873;50.102;14.434;2023-04-24T06:08:49;4.10;;;2.30;;
76127;SDS011;64873;50.102;14.434;2023-04-24T06:11:14;8.10;;;2.40;;
76127;SDS011;64873;50.102;14.434;2023-04-24T06:13:39;4.38;;;1.80;;
76127;SDS011;64873;50.102;14.434;2023-04-24T06:16:05;5.93;;;2.70;;
76127;SDS011;64873;50.102;14.434;2023-04-24T06:18:30;8.23;;;2.15;;
76127;SDS011;64873;50.102;14.434;2023-04-24T06:20:56;3.47;;;2.03;;
76127;SDS011;64873;50.102;14.434;2023-04-24T06:23:21;6.80;;;2.40;;
76127;SDS011;64873;50.102;14.434;2023-04-24T06:25:47;8.23;;;2.10;;
76127;SDS011;64873;50.102;14.434;2023-04-24T06:28:12;5.53;;;2.15;;
76127;SDS011;64873;50.102;14.434;2023-04-24T06:30:38;4.72;;;1.90;;
76127;SDS011;64873;50.102;14.434;2023-04-24T06:33:03;5.47;;;2.38;;
76127;SDS011;64873;50.102;14.434;2023-04-24T06:35:28;4.63;;;2.30;;
76127;SDS011;64873;50.102;14.434;2023-04-24T06:37:55;6.35;;;2.80;;
76127;SDS011;64873;50.102;14.434;2023-04-24T06:40:21;3.88;;;2.20;;
76127;SDS011;64873;50.102;14.434;2023-04-24T06:42:47;8.48;;;2.53;;
76127;SDS011;64873;50.102;14.434;2023-04-24T06:45:12;5.45;;;2.30;;
76127;SDS011;64873;50.102;14.434;2023-04-24T06:47:37;6.75;;;2.45;;
76127;SDS011;64873;50.102;14.434;2023-04-24T06:50:03;6.78;;;2.47;;
76127;SDS011;64873;50.102;14.434;2023-04-24T06:52:29;4.97;;;2.28;;
76127;SDS011;64873;50.102;14.434;2023-04-24T06:55:03;3.70;;;2.53;;
76127;SDS011;64873;50.102;14.434;2023-04-24T06:57:30;5.32;;;2.78;;
76127;SDS011;64873;50.102;14.434;2023-04-24T06:59:57;9.45;;;3.17;;
76127;SDS011;64873;50.102;14.434;2023-04-24T07:02:22;4.00;;;2.38;;
76127;SDS011;64873;50.102;14.434;2023-04-24T07:04:48;3.45;;;2.50;;
76127;SDS011;64873;50.102;14.434;2023-04-24T07:07:13;3.90;;;2.40;;
76127;SDS011;64873;50.102;14.434;2023-04-24T07:09:39;5.60;;;2.53;;
76127;SDS011;64873;50.102;14.434;2023-04-24T07:12:07;4.82;;;2.67;;
76127;SDS011;64873;50.102;14.434;2023-04-24T07:14:35;5.65;;;2.80;;
76127;SDS011;64873;50.102;14.434;2023-04-24T07:17:03;6.03;;;2.55;;
76127;SDS011;64873;50.102;14.434;2023-04-24T07:19:29;6.18;;;2.70;;
76127;SDS011;64873;50.102;14.434;2023-04-24T07:21:54;6.57;;;2.80;;
76127;SDS011;64873;50.102;14.434;2023-04-24T07:24:20;5.70;;;2.55;;
76127;SDS011;64873;50.102;14.434;2023-04-24T07:26:45;11.30;;;4.10;;
76127;SDS011;64873;50.102;14.434;2023-04-24T07:29:11;4.18;;;2.63;;
76127;SDS011;64873;50.102;14.434;2023-04-24T07:31:38;6.50;;;2.63;;
76127;SDS011;64873;50.102;14.434;2023-04-24T07:34:06;7.38;;;4.50;;
76127;SDS011;64873;50.102;14.434;2023-04-24T07:36:32;4.35;;;2.53;;
76127;SDS011;64873;50.102;14.434;2023-04-24T07:38:57;7.90;;;2.50;;
76127;SDS011;64873;50.102;14.434;2023-04-24T07:41:23;3.17;;;2.30;;
76127;SDS011;64873;50.102;14.434;2023-04-24T07:43:49;3.65;;;2.30;;
76127;SDS011;64873;50.102;14.434;2023-04-24T07:46:14;7.10;;;2.50;;
76127;SDS011;64873;50.102;14.434;2023-04-24T07:48:40;4.15;;;2.38;;
76127;SDS011;64873;50.102;14.434;2023-04-24T07:51:05;9.40;;;2.75;;
76127;SDS011;64873;50.102;14.434;2023-04-24T07:53:31;4.28;;;2.60;;
76127;SDS011;64873;50.102;14.434;2023-04-24T07:55:56;7.78;;;2.33;;
76127;SDS011;64873;50.102;14.434;2023-04-24T07:58:22;4.53;;;2.10;;
76127;SDS011;64873;50.102;14.434;2023-04-24T08:00:47;7.43;;;2.42;;
76127;SDS011;64873;50.102;14.434;2023-04-24T08:03:14;6.07;;;2.33;;
76127;SDS011;64873;50.102;14.434;2023-04-24T08:05:39;4.88;;;2.15;;
76127;SDS011;64873;50.102;14.434;2023-04-24T08:08:06;5.07;;;2.20;;
76127;SDS011;64873;50.102;14.434;2023-04-24T08:10:32;6.43;;;2.42;;
76127;SDS011;64873;50.102;14.434;2023-04-24T08:12:57;6.95;;;2.42;;
76127;SDS011;64873;50.102;14.434;2023-04-24T08:15:23;5.53;;;2.00;;
76127;SDS011;64873;50.102;14.434;2023-04-24T08:17:48;3.20;;;2.00;;
76127;SDS011;64873;50.102;14.434;2023-04-24T08:20:14;5.60;;;2.10;;
76127;SDS011;64873;50.102;14.434;2023-04-24T08:22:40;5.63;;;2.20;;
76127;SDS011;64873;50.102;14.434;2023-04-24T08:25:07;7.47;;;2.40;;
76127;SDS011;64873;50.102;14.434;2023-04-24T08:27:33;4.93;;;2.25;;
76127;SDS011;64873;50.102;14.434;2023-04-24T08:29:58;4.15;;;2.10;;
76127;SDS011;64873;50.102;14.434;2023-04-24T08:32:27;6.47;;;1.98;;
76127;SDS011;64873;50.102;14.434;2023-04-24T08:34:55;2.92;;;1.70;;
76127;SDS011;64873;50.102;14.434;2023-04-24T08:37:25;3.90;;;1.60;;
76127;SDS011;64873;50.102;14.434;2023-04-24T08:39:51;5.00;;;1.60;;
76127;SDS011;64873;50.102;14.434;2023-04-24T08:42:17;3.92;;;1.90;;
76127;SDS011;64873;50.102;14.434;2023-04-24T08:44:43;15.60;;;8.30;;
76127;SDS011;64873;50.102;14.434;2023-04-24T08:47:09;16.13;;;8.70;;
76127;SDS011;64873;50.102;14.434;2023-04-24T08:49:36;12.00;;;6.00;;
76127;SDS011;64873;50.102;14.434;2023-04-24T08:52:03;7.15;;;3.85;;
76127;SDS011;64873;50.102;14.434;2023-04-24T08:54:29;6.85;;;3.55;;
76127;SDS011;64873;50.102;14.434;2023-04-24T08:56:59;6.75;;;2.78;;
76127;SDS011;64873;50.102;14.434;2023-04-24T08:59:31;7.05;;;2.60;;
76127;SDS011;64873;50.102;14.434;2023-04-24T09:01:57;2.92;;;2.17;;
76127;SDS011;64873;50.102;14.434;2023-04-24T09:04:23;6.15;;;2.17;;
76127;SDS011;64873;50.102;14.434;2023-04-24T09:06:50;5.03;;;2.10;;
76127;SDS011;64873;50.102;14.434;2023-04-24T09:09:17;2.92;;;1.92;;
76127;SDS011;64873;50.102;14.434;2023-04-24T09:11:45;6.25;;;2.20;;
76127;SDS011;64873;50.102;14.434;2023-04-24T09:14:11;3.20;;;1.98;;
76127;SDS011;64873;50.102;14.434;2023-04-24T09:16:37;6.28;;;1.85;;
76127;SDS011;64873;50.102;14.434;2023-04-24T09:19:03;5.32;;;2.40;;
76127;SDS011;64873;50.102;14.434;2023-04-24T09:21:32;7.32;;;4.72;;
76127;SDS011;64873;50.102;14.434;2023-04-24T09:23:59;7.60;;;3.67;;
76127;SDS011;64873;50.102;14.434;2023-04-24T09:26:28;4.88;;;2.58;;
76127;SDS011;64873;50.102;14.434;2023-04-24T09:28:56;3.22;;;2.15;;
76127;SDS011;64873;50.102;14.434;2023-04-24T09:31:22;7.68;;;2.50;;
76127;SDS011;64873;50.102;14.434;2023-04-24T09:33:58;4.63;;;2.83;;
76127;SDS011;64873;50.102;14.434;2023-04-24T09:36:28;4.60;;;2.60;;
76127;SDS011;64873;50.102;14.434;2023-04-24T09:38:58;3.45;;;2.80;;
76127;SDS011;64873;50.102;14.434;2023-04-24T09:41:24;9.30;;;3.20;;
76127;SDS011;64873;50.102;14.434;2023-04-24T09:43:50;6.63;;;3.50;;
76127;SDS011;64873;50.102;14.434;2023-04-24T09:46:19;5.57;;;3.40;;
76127;SDS011;64873;50.102;14.434;2023-04-24T09:48:46;8.05;;;3.97;;
76127;SDS011;64873;50.102;14.434;2023-04-24T09:51:11;7.13;;;3.55;;
76127;SDS011;64873;50.102;14.434;2023-04-24T09:53:37;4.10;;;3.40;;
76127;SDS011;64873;50.102;14.434;2023-04-24T09:56:09;7.43;;;3.60;;
76127;SDS011;64873;50.102;14.434;2023-04-24T09:58:36;4.15;;;3.40;;
76127;SDS011;64873;50.102;14.434;2023-04-24T10:01:01;6.18;;;3.15;;
76127;SDS011;64873;50.102;14.434;2023-04-24T10:03:31;6.82;;;3.70;;
76127;SDS011;64873;50.102;14.434;2023-04-24T10:06:01;4.78;;;3.17;;
76127;SDS011;64873;50.102;14.434;2023-04-24T10:08:32;5.32;;;3.03;;
76127;SDS011;64873;50.102;14.434;2023-04-24T10:10:59;4.63;;;2.95;;
76127;SDS011;64873;50.102;14.434;2023-04-24T10:13:26;6.68;;;3.60;;
76127;SDS011;64873;50.102;14.434;2023-04-24T10:15:52;5.38;;;3.45;;
76127;SDS011;64873;50.102;14.434;2023-04-24T10:18:19;4.10;;;2.95;;
76127;SDS011;64873;50.102;14.434;2023-04-24T10:20:46;3.90;;;2.78;;
76127;SDS011;64873;50.102;14.434;2023-04-24T10:23:12;3.92;;;2.40;;
76127;SDS011;64873;50.102;14.434;2023-04-24T10:25:37;3.20;;;1.45;;
76127;SDS011;64873;50.102;14.434;2023-04-24T10:28:03;4.05;;;1.88;;
76127;SDS011;64873;50.102;14.434;2023-04-24T10:30:31;5.07;;;1.88;;
76127;SDS011;64873;50.102;14.434;2023-04-24T10:33:01;5.20;;;2.05;;
76127;SDS011;64873;50.102;14.434;2023-04-24T10:35:33;3.30;;;1.65;;
76127;SDS011;64873;50.102;14.434;2023-04-24T10:40:31;3.90;;;1.40;;
76127;SDS011;64873;50.102;14.434;2023-04-24T10:42:59;4.78;;;1.58;;
76127;SDS011;64873;50.102;14.434;2023-04-24T10:45:26;2.60;;;1.42;;
76127;SDS011;64873;50.102;14.434;2023-04-24T10:47:53;2.10;;;1.23;;
76127;SDS011;64873;50.102;14.434;2023-04-24T10:50:18;3.80;;;1.13;;
76127;SDS011;64873;50.102;14.434;2023-04-24T10:52:48;2.45;;;1.17;;
76127;SDS011;64873;50.102;14.434;2023-04-24T10:55:16;4.38;;;1.30;;
76127;SDS011;64873;50.102;14.434;2023-04-24T10:58:05;3.85;;;1.50;;
76127;SDS011;64873;50.102;14.434;2023-04-24T11:00:31;3.65;;;1.00;;
76127;SDS011;64873;50.102;14.434;2023-04-24T11:02:56;6.28;;;1.42;;
76127;SDS011;64873;50.102;14.434;2023-04-24T11:05:23;2.42;;;1.10;;
76127;SDS011;64873;50.102;14.434;2023-04-24T11:08:16;2.28;;;0.98;;
76127;SDS011;64873;50.102;14.434;2023-04-24T11:13:21;2.63;;;1.05;;
76127;SDS011;64873;50.102;14.434;2023-04-24T11:16:11;2.22;;;1.00;;
76127;SDS011;64873;50.102;14.434;2023-04-24T11:21:39;3.10;;;0.90;;
76127;SDS011;64873;50.102;14.434;2023-04-24T11:27:11;3.97;;;0.90;;
76127;SDS011;64873;50.102;14.434;2023-04-24T11:29:49;2.90;;;1.08;;
76127;SDS011;64873;50.102;14.434;2023-04-24T11:34:56;3.67;;;1.75;;
76127;SDS011;64873;50.102;14.434;2023-04-24T11:37:33;3.38;;;0.95;;
76127;SDS011;64873;50.102;14.434;2023-04-24T11:40:01;2.90;;;1.20;;
76127;SDS011;64873;50.102;14.434;2023-04-24T11:42:29;4.15;;;1.00;;
76127;SDS011;64873;50.102;14.434;2023-04-24T11:44:59;2.53;;;1.10;;
76127;SDS011;64873;50.102;14.434;2023-04-24T11:47:28;2.10;;;0.93;;
76127;SDS011;64873;50.102;14.434;2023-04-24T11:49:55;2.10;;;1.02;;
76127;SDS011;64873;50.102;14.434;2023-04-24T11:52:20;4.28;;;1.20;;
76127;SDS011;64873;50.102;14.434;2023-04-24T11:54:49;4.78;;;1.15;;
76127;SDS011;64873;50.102;14.434;2023-04-24T11:57:15;3.53;;;1.10;;
76127;SDS011;64873;50.102;14.434;2023-04-24T11:59:41;3.72;;;0.80;;
76127;SDS011;64873;50.102;14.434;2023-04-24T12:02:06;1.88;;;0.70;;
76127;SDS011;64873;50.102;14.434;2023-04-24T12:04:38;3.60;;;1.10;;
76127;SDS011;64873;50.102;14.434;2023-04-24T12:07:05;2.67;;;1.17;;
76127;SDS011;64873;50.102;14.434;2023-04-24T12:09:47;4.97;;;1.42;;
76127;SDS011;64873;50.102;14.434;2023-04-24T12:12:16;4.80;;;1.48;;
76127;SDS011;64873;50.102;14.434;2023-04-24T12:14:49;5.88;;;1.20;;
76127;SDS011;64873;50.102;14.434;2023-04-24T12:17:17;3.47;;;1.27;;
76127;SDS011;64873;50.102;14.434;2023-04-24T12:19:46;2.80;;;1.10;;
76127;SDS011;64873;50.102;14.434;2023-04-24T12:22:13;7.82;;;1.65;;
76127;SDS011;64873;50.102;14.434;2023-04-24T12:27:33;4.07;;;1.40;;
76127;SDS011;64873;50.102;14.434;2023-04-24T12:29:59;3.88;;;1.30;;
76127;SDS011;64873;50.102;14.434;2023-04-24T12:32:26;2.17;;;1.20;;
76127;SDS011;64873;50.102;14.434;2023-04-24T12:34:52;4.72;;;1.35;;
76127;SDS011;64873;50.102;14.434;2023-04-24T12:37:18;2.17;;;1.20;;
76127;SDS011;64873;50.102;14.434;2023-04-24T12:42:36;2.13;;;1.17;;
76127;SDS011;64873;50.102;14.434;2023-04-24T12:45:07;5.50;;;1.20;;
76127;SDS011;64873;50.102;14.434;2023-04-24T12:47:33;3.53;;;1.98;;
76127;SDS011;64873;50.102;14.434;2023-04-24T12:49:59;2.72;;;1.38;;
76127;SDS011;64873;50.102;14.434;2023-04-24T12:52:26;4.13;;;1.40;;
76127;SDS011;64873;50.102;14.434;2023-04-24T12:54:54;2.80;;;1.40;;
76127;SDS011;64873;50.102;14.434;2023-04-24T12:57:20;4.85;;;1.88;;
76127;SDS011;64873;50.102;14.434;2023-04-24T12:59:47;4.20;;;1.70;;
76127;SDS011;64873;50.102;14.434;2023-04-24T13:02:12;4.00;;;1.40;;
76127;SDS011;64873;50.102;14.434;2023-04-24T13:04:37;4.40;;;1.40;;
76127;SDS011;64873;50.102;14.434;2023-04-24T13:07:04;4.28;;;1.52;;
76127;SDS011;64873;50.102;14.434;2023-04-24T13:09:30;3.78;;;1.60;;
76127;SDS011;64873;50.102;14.434;2023-04-24T13:11:55;4.97;;;1.75;;
76127;SDS011;64873;50.102;14.434;2023-04-24T13:14:22;6.72;;;1.80;;
76127;SDS011;64873;50.102;14.434;2023-04-24T13:16:47;5.32;;;1.70;;
76127;SDS011;64873;50.102;14.434;2023-04-24T13:19:13;5.35;;;2.20;;
76127;SDS011;64873;50.102;14.434;2023-04-24T13:21:38;7.40;;;1.85;;
76127;SDS011;64873;50.102;14.434;2023-04-24T13:24:04;6.38;;;2.28;;
76127;SDS011;64873;50.102;14.434;2023-04-24T13:26:30;4.85;;;1.85;;
76127;SDS011;64873;50.102;14.434;2023-04-24T13:28:56;7.18;;;2.03;;
76127;SDS011;64873;50.102;14.434;2023-04-24T13:31:21;4.53;;;2.08;;
76127;SDS011;64873;50.102;14.434;2023-04-24T13:33:47;10.70;;;2.10;;
76127;SDS011;64873;50.102;14.434;2023-04-24T13:36:13;8.98;;;2.08;;
76127;SDS011;64873;50.102;14.434;2023-04-24T13:38:38;6.57;;;1.63;;
76127;SDS011;64873;50.102;14.434;2023-04-24T13:41:04;5.03;;;1.50;;
76127;SDS011;64873;50.102;14.434;2023-04-24T13:43:29;2.65;;;1.52;;
76127;SDS011;64873;50.102;14.434;2023-04-24T13:45:55;6.25;;;1.30;;
76127;SDS011;64873;50.102;14.434;2023-04-24T13:48:20;4.50;;;1.10;;
76127;SDS011;64873;50.102;14.434;2023-04-24T13:50:46;2.55;;;1.50;;
76127;SDS011;64873;50.102;14.434;2023-04-24T13:53:13;2.10;;;1.15;;
76127;SDS011;64873;50.102;14.434;2023-04-24T13:55:39;4.07;;;0.80;;
76127;SDS011;64873;50.102;14.434;2023-04-24T13:58:04;2.30;;;0.88;;
76127;SDS011;64873;50.102;14.434;2023-04-24T14:00:29;2.33;;;0.90;;
76127;SDS011;64873;50.102;14.434;2023-04-24T14:02:56;2.30;;;0.90;;
76127;SDS011;64873;50.102;14.434;2023-04-24T14:05:21;1.83;;;0.80;;
76127;SDS011;64873;50.102;14.434;2023-04-24T14:07:47;1.50;;;0.77;;
76127;SDS011;64873;50.102;14.434;2023-04-24T14:10:12;4.45;;;0.98;;
76127;SDS011;64873;50.102;14.434;2023-04-24T14:12:38;1.90;;;0.73;;
76127;SDS011;64873;50.102;14.434;2023-04-24T14:15:04;5.13;;;1.23;;
76127;SDS011;64873;50.102;14.434;2023-04-24T14:17:30;1.98;;;1.30;;
76127;SDS011;64873;50.102;14.434;2023-04-24T14:19:55;4.97;;;1.80;;
76127;SDS011;64873;50.102;14.434;2023-04-24T14:22:21;1.73;;;1.00;;
76127;SDS011;64873;50.102;14.434;2023-04-24T14:24:47;1.85;;;0.90;;
76127;SDS011;64873;50.102;14.434;2023-04-24T14:27:12;2.88;;;1.08;;
76127;SDS011;64873;50.102;14.434;2023-04-24T14:29:38;1.60;;;0.70;;
76127;SDS011;64873;50.102;14.434;2023-04-24T14:32:03;6.43;;;0.90;;
76127;SDS011;64873;50.102;14.434;2023-04-24T14:34:29;1.40;;;0.95;;
76127;SDS011;64873;50.102;14.434;2023-04-24T14:36:55;2.25;;;1.00;;
76127;SDS011;64873;50.102;14.434;2023-04-24T14:39:20;1.83;;;1.00;;
76127;SDS011;64873;50.102;14.434;2023-04-24T14:41:46;3.50;;;0.90;;
76127;SDS011;64873;50.102;14.434;2023-04-24T14:44:11;5.85;;;1.38;;
76127;SDS011;64873;50.102;14.434;2023-04-24T14:46:37;1.88;;;0.88;;
76127;SDS011;64873;50.102;14.434;2023-04-24T14:49:02;1.50;;;0.93;;
76127;SDS011;64873;50.102;14.434;2023-04-24T14:51:27;1.55;;;1.05;;
76127;SDS011;64873;50.102;14.434;2023-04-24T14:53:56;2.55;;;1.20;;